sensor_id;sensor_type;location;lat;lon;timestamp;pressure;altitude;pressure_sealevel;temperature;humidity
56514;BME280;62152;52.078;8.414;2023-03-16T00:02:14;100537.69;;;17.66;54.07
56514;BME280;62152;52.078;8.414;2023-03-16T00:06:14;100543.19;;;17.66;54.05
56514;BME280;62152;52.078;8.414;2023-03-16T00:10:15;100544.78;;;17.67;53.84
56514;BME280;62152;52.078;8.414;2023-03-16T00:14:17;100543.53;;;17.64;54.34
56514;BME280;62152;52.078;8.414;2023-03-16T00:18:18;100544.66;;;17.63;54.51
56514;BME280;62152;52.078;8.414;2023-03-16T00:22:20;100539.19;;;17.63;53.99
56514;BME280;62152;52.078;8.414;2023-03-16T00:26:21;100541.13;;;17.63;54.40
56514;BME280;62152;52.078;8.414;2023-03-16T00:30:23;100541.13;;;17.63;54.21
56514;BME280;62152;52.078;8.414;2023-03-16T00:34:23;100543.88;;;17.63;53.71
56514;BME280;62152;52.078;8.414;2023-03-16T00:38:24;100540.34;;;17.62;54.36
56514;BME280;62152;52.078;8.414;2023-03-16T00:42:28;100532.09;;;17.62;54.12
56514;BME280;62152;52.078;8.414;2023-03-16T00:46:30;100541.50;;;17.61;53.97
56514;BME280;62152;52.078;8.414;2023-03-16T00:50:31;100536.81;;;17.62;54.01
56514;BME280;62152;52.078;8.414;2023-03-16T00:54:32;100525.03;;;17.61;54.06
56514;BME280;62152;52.078;8.414;2023-03-16T00:58:35;100524.25;;;17.61;54.39
56514;BME280;62152;52.078;8.414;2023-03-16T01:02:37;100521.84;;;17.59;53.75
56514;BME280;62152;52.078;8.414;2023-03-16T01:06:38;100512.47;;;17.60;54.06
56514;BME280;62152;52.078;8.414;2023-03-16T01:10:39;100505.41;;;17.59;54.43
56514;BME280;62152;52.078;8.414;2023-03-16T01:14:40;100517.97;;;17.60;54.18
56514;BME280;62152;52.078;8.414;2023-03-16T01:18:42;100504.59;;;17.59;54.32
56514;BME280;62152;52.078;8.414;2023-03-16T01:22:43;100505.41;;;17.59;54.29
56514;BME280;62152;52.078;8.414;2023-03-16T01:26:44;100507.34;;;17.59;54.33
56514;BME280;62152;52.078;8.414;2023-03-16T01:30:45;100514.00;;;17.58;54.17
56514;BME280;62152;52.078;8.414;2023-03-16T01:34:47;100514.78;;;17.58;54.49
56514;BME280;62152;52.078;8.414;2023-03-16T01:38:48;100514.00;;;17.58;54.52
56514;BME280;62152;52.078;8.414;2023-03-16T01:42:59;100507.72;;;17.57;54.05
56514;BME280;62152;52.078;8.414;2023-03-16T01:47:01;100491.25;;;17.57;54.47
56514;BME280;62152;52.078;8.414;2023-03-16T01:51:07;100492.38;;;17.56;54.32
56514;BME280;62152;52.078;8.414;2023-03-16T01:55:11;100468.06;;;17.55;54.15
56514;BME280;62152;52.078;8.414;2023-03-16T01:59:16;100460.63;;;17.55;54.39
56514;BME280;62152;52.078;8.414;2023-03-16T02:03:20;100454.00;;;17.56;54.21
56514;BME280;62152;52.078;8.414;2023-03-16T02:07:44;100440.28;;;17.56;54.08
56514;BME280;62152;52.078;8.414;2023-03-16T02:11:46;100442.22;;;17.56;54.64
56514;BME280;62152;52.078;8.414;2023-03-16T02:15:50;100433.19;;;17.55;53.88
56514;BME280;62152;52.078;8.414;2023-03-16T02:20:01;100431.63;;;17.54;54.28
56514;BME280;62152;52.078;8.414;2023-03-16T02:24:07;100437.91;;;17.55;53.83
56514;BME280;62152;52.078;8.414;2023-03-16T02:28:17;100428.88;;;17.54;54.52
56514;BME280;62152;52.078;8.414;2023-03-16T02:32:24;100438.25;;;17.53;54.10
56514;BME280;62152;52.078;8.414;2023-03-16T02:36:27;100444.16;;;17.55;54.28
56514;BME280;62152;52.078;8.414;2023-03-16T02:40:31;100432.78;;;17.53;54.52
56514;BME280;62152;52.078;8.414;2023-03-16T02:44:36;100423.75;;;17.53;54.09
56514;BME280;62152;52.078;8.414;2023-03-16T02:48:45;100419.06;;;17.53;54.22
56514;BME280;62152;52.078;8.414;2023-03-16T02:52:47;100426.50;;;17.53;54.35
56514;BME280;62152;52.078;8.414;2023-03-16T02:56:48;100423.75;;;17.53;54.44
56514;BME280;62152;52.078;8.414;2023-03-16T03:00:49;100422.59;;;17.54;54.34
56514;BME280;62152;52.078;8.414;2023-03-16T03:04:52;100416.31;;;17.53;54.09
56514;BME280;62152;52.078;8.414;2023-03-16T03:08:53;100409.25;;;17.52;54.17
56514;BME280;62152;52.078;8.414;2023-03-16T03:12:54;100396.69;;;17.51;54.22
56514;BME280;62152;52.078;8.414;2023-03-16T03:16:55;100404.13;;;17.50;54.61
56514;BME280;62152;52.078;8.414;2023-03-16T03:20:57;100412.34;;;17.50;54.21
56514;BME280;62152;52.078;8.414;2023-03-16T03:24:58;100411.56;;;17.50;54.36
56514;BME280;62152;52.078;8.414;2023-03-16T03:28:59;100409.59;;;17.50;54.55
56514;BME280;62152;52.078;8.414;2023-03-16T03:33:00;100419.78;;;17.50;54.21
56514;BME280;62152;52.078;8.414;2023-03-16T03:37:02;100408.81;;;17.50;54.55
56514;BME280;62152;52.078;8.414;2023-03-16T03:41:04;100412.69;;;17.49;54.05
56514;BME280;62152;52.078;8.414;2023-03-16T03:45:09;100419.78;;;17.50;54.48
56514;BME280;62152;52.078;8.414;2023-03-16T03:49:10;100405.63;;;17.48;54.78
56514;BME280;62152;52.078;8.414;2023-03-16T03:53:12;100391.53;;;17.49;54.20
56514;BME280;62152;52.078;8.414;2023-03-16T03:57:33;100399.75;;;17.49;54.54
56514;BME280;62152;52.078;8.414;2023-03-16T04:01:33;100398.97;;;17.49;54.25
56514;BME280;62152;52.078;8.414;2023-03-16T04:05:34;100392.38;;;17.50;54.33
56514;BME280;62152;52.078;8.414;2023-03-16T04:09:37;100397.38;;;17.48;54.23
56514;BME280;62152;52.078;8.414;2023-03-16T04:13:38;100400.13;;;17.48;54.78
56514;BME280;62152;52.078;8.414;2023-03-16T04:17:39;100402.88;;;17.48;54.69
56514;BME280;62152;52.078;8.414;2023-03-16T04:21:43;100395.81;;;17.47;54.53
56514;BME280;62152;52.078;8.414;2023-03-16T04:25:45;100395.00;;;17.46;54.17
56514;BME280;62152;52.078;8.414;2023-03-16T04:29:48;100396.22;;;17.49;54.73
56514;BME280;62152;52.078;8.414;2023-03-16T04:33:49;100398.19;;;17.48;54.31
56514;BME280;62152;52.078;8.414;2023-03-16T04:37:50;100395.81;;;17.47;54.40
56514;BME280;62152;52.078;8.414;2023-03-16T04:41:55;100383.25;;;17.46;54.67
56514;BME280;62152;52.078;8.414;2023-03-16T04:45:59;100388.72;;;17.46;54.82
56514;BME280;62152;52.078;8.414;2023-03-16T04:50:04;100387.94;;;17.45;54.50
56514;BME280;62152;52.078;8.414;2023-03-16T04:54:07;100377.34;;;17.44;54.44
56514;BME280;62152;52.078;8.414;2023-03-16T04:58:11;100383.59;;;17.44;54.63
56514;BME280;62152;52.078;8.414;2023-03-16T05:02:13;100374.59;;;17.44;54.75
56514;BME280;62152;52.078;8.414;2023-03-16T05:06:14;100370.44;;;17.50;54.45
56514;BME280;62152;52.078;8.414;2023-03-16T05:10:17;100376.22;;;17.13;52.57
56514;BME280;62152;52.078;8.414;2023-03-16T05:14:19;100366.84;;;17.14;52.71
56514;BME280;62152;52.078;8.414;2023-03-16T05:18:31;100364.88;;;17.31;51.12
56514;BME280;62152;52.078;8.414;2023-03-16T05:22:32;100364.31;;;17.41;50.89
56514;BME280;62152;52.078;8.414;2023-03-16T05:26:45;100360.09;;;17.43;51.73
56514;BME280;62152;52.078;8.414;2023-03-16T05:30:50;100363.97;;;17.42;51.22
56514;BME280;62152;52.078;8.414;2023-03-16T05:34:55;100353.34;;;17.41;51.48
56514;BME280;62152;52.078;8.414;2023-03-16T05:38:56;100355.66;;;17.39;51.50
56514;BME280;62152;52.078;8.414;2023-03-16T05:43:04;100350.19;;;17.39;51.63
56514;BME280;62152;52.078;8.414;2023-03-16T05:47:09;100345.50;;;17.39;52.11
56514;BME280;62152;52.078;8.414;2023-03-16T05:51:15;100342.31;;;17.37;51.81
56514;BME280;62152;52.078;8.414;2023-03-16T05:55:17;100336.47;;;17.39;52.59
56514;BME280;62152;52.078;8.414;2023-03-16T05:59:19;100340.38;;;17.38;52.45
56514;BME280;62152;52.078;8.414;2023-03-16T06:03:27;100332.94;;;17.38;52.58
56514;BME280;62152;52.078;8.414;2023-03-16T06:07:30;100333.31;;;17.37;52.73
56514;BME280;62152;52.078;8.414;2023-03-16T06:11:31;100333.31;;;17.37;52.52
56514;BME280;62152;52.078;8.414;2023-03-16T06:15:31;100336.47;;;17.39;52.35
56514;BME280;62152;52.078;8.414;2023-03-16T06:19:37;100328.63;;;17.37;52.61
56514;BME280;62152;52.078;8.414;2023-03-16T06:23:38;100322.34;;;17.37;53.16
56514;BME280;62152;52.078;8.414;2023-03-16T06:27:41;100333.31;;;17.37;52.71
56514;BME280;62152;52.078;8.414;2023-03-16T06:31:46;100330.19;;;17.38;52.52
56514;BME280;62152;52.078;8.414;2023-03-16T06:35:48;100321.97;;;17.38;53.28
56514;BME280;62152;52.078;8.414;2023-03-16T06:39:56;100322.75;;;17.39;52.84
56514;BME280;62152;52.078;8.414;2023-03-16T06:43:57;100316.13;;;17.40;52.81
56514;BME280;62152;52.078;8.414;2023-03-16T06:47:58;100322.75;;;17.39;52.67
56514;BME280;62152;52.078;8.414;2023-03-16T06:52:00;100320.81;;;17.39;52.88
56514;BME280;62152;52.078;8.414;2023-03-16T06:56:01;100337.69;;;17.41;52.82
56514;BME280;62152;52.078;8.414;2023-03-16T07:00:06;100328.69;;;17.41;53.01
56514;BME280;62152;52.078;8.414;2023-03-16T07:04:07;100336.53;;;17.42;53.04
56514;BME280;62152;52.078;8.414;2023-03-16T07:08:09;100333.00;;;17.42;52.89
56514;BME280;62152;52.078;8.414;2023-03-16T07:12:10;100341.22;;;17.42;52.79
56514;BME280;62152;52.078;8.414;2023-03-16T07:16:11;100348.28;;;17.43;53.00
56514;BME280;62152;52.078;8.414;2023-03-16T07:20:12;100342.03;;;17.42;53.01
56514;BME280;62152;52.078;8.414;2023-03-16T07:24:14;100341.22;;;17.42;53.32
56514;BME280;62152;52.078;8.414;2023-03-16T07:28:15;100345.91;;;17.41;53.64
56514;BME280;62152;52.078;8.414;2023-03-16T07:32:17;100350.59;;;17.41;53.54
56514;BME280;62152;52.078;8.414;2023-03-16T07:36:20;100357.69;;;17.42;53.32
56514;BME280;62152;52.078;8.414;2023-03-16T07:40:28;100347.88;;;17.41;53.42
56514;BME280;62152;52.078;8.414;2023-03-16T07:44:35;100357.69;;;17.42;53.11
56514;BME280;62152;52.078;8.414;2023-03-16T07:48:36;100363.97;;;17.42;53.07
56514;BME280;62152;52.078;8.414;2023-03-16T07:52:37;100363.16;;;17.42;53.39
56514;BME280;62152;52.078;8.414;2023-03-16T07:56:40;100362.00;;;17.43;53.59
56514;BME280;62152;52.078;8.414;2023-03-16T08:00:55;100370.69;;;17.45;53.28
56514;BME280;62152;52.078;8.414;2023-03-16T08:04:56;100362.47;;;17.45;53.16
56514;BME280;62152;52.078;8.414;2023-03-16T08:08:57;100357.78;;;17.45;53.55
56514;BME280;62152;52.078;8.414;2023-03-16T08:13:06;100352.66;;;17.44;53.59
56514;BME280;62152;52.078;8.414;2023-03-16T08:17:08;100346.00;;;17.45;53.25
56514;BME280;62152;52.078;8.414;2023-03-16T08:21:09;100348.75;;;17.45;53.13
56514;BME280;62152;52.078;8.414;2023-03-16T08:25:11;100360.16;;;17.47;53.03
56514;BME280;62152;52.078;8.414;2023-03-16T08:29:20;100355.47;;;17.47;53.61
56514;BME280;62152;52.078;8.414;2023-03-16T08:33:21;100353.88;;;17.46;53.39
56514;BME280;62152;52.078;8.414;2023-03-16T08:37:23;100351.56;;;17.48;53.45
56514;BME280;62152;52.078;8.414;2023-03-16T08:41:27;100353.50;;;17.48;53.26
56514;BME280;62152;52.078;8.414;2023-03-16T08:45:29;100354.31;;;17.48;53.15
56514;BME280;62152;52.078;8.414;2023-03-16T08:49:30;100357.50;;;17.50;53.17
56514;BME280;62152;52.078;8.414;2023-03-16T08:53:37;100353.59;;;17.52;53.01
56514;BME280;62152;52.078;8.414;2023-03-16T08:57:38;100356.34;;;17.52;53.01
56514;BME280;62152;52.078;8.414;2023-03-16T09:01:40;100360.25;;;17.50;53.63
56514;BME280;62152;52.078;8.414;2023-03-16T09:05:40;100354.41;;;17.52;53.16
56514;BME280;62152;52.078;8.414;2023-03-16T09:09:41;100351.66;;;17.52;53.12
56514;BME280;62152;52.078;8.414;2023-03-16T09:13:42;100360.69;;;17.53;53.39
56514;BME280;62152;52.078;8.414;2023-03-16T09:17:45;100352.44;;;17.53;53.48
56514;BME280;62152;52.078;8.414;2023-03-16T09:21:46;100357.13;;;17.52;53.16
56514;BME280;62152;52.078;8.414;2023-03-16T09:25:46;100346.59;;;17.54;53.44
56514;BME280;62152;52.078;8.414;2023-03-16T09:29:47;100341.91;;;17.55;53.14
56514;BME280;62152;52.078;8.414;2023-03-16T09:33:49;100345.44;;;17.55;53.37
56514;BME280;62152;52.078;8.414;2023-03-16T09:37:50;100339.97;;;17.55;53.20
56514;BME280;62152;52.078;8.414;2023-03-16T09:41:56;100343.16;;;17.57;53.62
56514;BME280;62152;52.078;8.414;2023-03-16T09:46:04;100348.63;;;17.57;53.45
56514;BME280;62152;52.078;8.414;2023-03-16T09:50:19;100337.31;;;17.59;53.22
56514;BME280;62152;52.078;8.414;2023-03-16T09:54:28;100332.63;;;17.59;53.15
56514;BME280;62152;52.078;8.414;2023-03-16T09:58:32;100332.63;;;17.59;53.25
56514;BME280;62152;52.078;8.414;2023-03-16T10:02:51;100343.22;;;17.61;53.15
56514;BME280;62152;52.078;8.414;2023-03-16T10:07:06;100333.03;;;17.61;53.56
56514;BME280;62152;52.078;8.414;2023-03-16T10:11:24;100339.31;;;17.62;53.31
56514;BME280;62152;52.078;8.414;2023-03-16T10:15:29;100337.38;;;17.62;53.30
56514;BME280;62152;52.078;8.414;2023-03-16T10:19:37;100331.88;;;17.62;53.34
56514;BME280;62152;52.078;8.414;2023-03-16T10:23:43;100330.72;;;17.63;53.03
56514;BME280;62152;52.078;8.414;2023-03-16T10:27:45;100335.09;;;17.64;53.40
56514;BME280;62152;52.078;8.414;2023-03-16T10:31:46;100329.59;;;17.64;53.23
56514;BME280;62152;52.078;8.414;2023-03-16T10:35:51;100315.88;;;17.64;52.81
56514;BME280;62152;52.078;8.414;2023-03-16T10:39:55;100317.84;;;17.64;52.80
56514;BME280;62152;52.078;8.414;2023-03-16T10:43:58;100320.22;;;17.65;52.58
56514;BME280;62152;52.078;8.414;2023-03-16T10:48:06;100323.75;;;17.66;53.14
56514;BME280;62152;52.078;8.414;2023-03-16T10:52:14;100316.31;;;17.66;53.14
56514;BME280;62152;52.078;8.414;2023-03-16T10:56:22;100315.16;;;17.67;53.14
56514;BME280;62152;52.078;8.414;2023-03-16T11:00:26;100312.78;;;17.66;53.39
56514;BME280;62152;52.078;8.414;2023-03-16T11:04:30;100310.03;;;17.66;52.76
56514;BME280;62152;52.078;8.414;2023-03-16T11:08:34;100295.53;;;17.65;53.41
56514;BME280;62152;52.078;8.414;2023-03-16T11:12:36;100283.75;;;17.65;53.12
56514;BME280;62152;52.078;8.414;2023-03-16T11:16:41;100280.22;;;17.64;53.52
56514;BME280;62152;52.078;8.414;2023-03-16T11:20:43;100274.38;;;17.66;53.14
56514;BME280;62152;52.078;8.414;2023-03-16T11:24:49;100273.59;;;17.65;53.27
56514;BME280;62152;52.078;8.414;2023-03-16T11:29:00;100279.06;;;17.65;53.37
56514;BME280;62152;52.078;8.414;2023-03-16T11:33:01;100284.19;;;17.67;53.50
56514;BME280;62152;52.078;8.414;2023-03-16T11:37:13;100281.44;;;17.67;53.31
56514;BME280;62152;52.078;8.414;2023-03-16T11:41:24;100290.81;;;17.66;53.29
56514;BME280;62152;52.078;8.414;2023-03-16T11:45:37;100274.75;;;17.64;53.38
56514;BME280;62152;52.078;8.414;2023-03-16T11:49:56;100271.63;;;17.66;53.31
56514;BME280;62152;52.078;8.414;2023-03-16T11:54:13;100263.78;;;17.64;53.04
56514;BME280;62152;52.078;8.414;2023-03-16T11:58:31;100262.59;;;17.65;53.06
56514;BME280;62152;52.078;8.414;2023-03-16T12:02:48;100268.09;;;17.65;53.53
56514;BME280;62152;52.078;8.414;2023-03-16T12:07:07;100272.78;;;17.65;53.38
56514;BME280;62152;52.078;8.414;2023-03-16T12:11:16;100258.69;;;17.66;53.36
56514;BME280;62152;52.078;8.414;2023-03-16T12:15:31;100252.06;;;17.67;53.13
56514;BME280;62152;52.078;8.414;2023-03-16T12:19:42;100249.31;;;17.67;53.00
56514;BME280;62152;52.078;8.414;2023-03-16T12:23:50;100238.34;;;17.67;53.49
56514;BME280;62152;52.078;8.414;2023-03-16T12:27:54;100235.59;;;17.67;53.39
56514;BME280;62152;52.078;8.414;2023-03-16T12:32:06;100216.81;;;17.69;52.96
56514;BME280;62152;52.078;8.414;2023-03-16T12:36:34;100208.59;;;17.69;53.01
56514;BME280;62152;52.078;8.414;2023-03-16T12:40:44;100202.31;;;17.69;53.33
56514;BME280;62152;52.078;8.414;2023-03-16T12:44:55;100203.09;;;17.69;53.38
56514;BME280;62152;52.078;8.414;2023-03-16T12:49:00;100193.72;;;17.70;53.02
56514;BME280;62152;52.078;8.414;2023-03-16T12:53:04;100191.81;;;17.71;53.42
56514;BME280;62152;52.078;8.414;2023-03-16T12:57:06;100184.38;;;17.71;52.89
56514;BME280;62152;52.078;8.414;2023-03-16T13:01:11;100172.94;;;17.69;53.36
56514;BME280;62152;52.078;8.414;2023-03-16T13:05:15;100168.25;;;17.70;53.01
56514;BME280;62152;52.078;8.414;2023-03-16T13:09:23;100156.47;;;17.69;53.27
56514;BME280;62152;52.078;8.414;2023-03-16T13:13:25;100152.56;;;17.70;52.99
56514;BME280;62152;52.078;8.414;2023-03-16T13:17:28;100148.72;;;17.71;53.31
56514;BME280;62152;52.078;8.414;2023-03-16T13:21:35;100139.22;;;17.69;53.17
56514;BME280;62152;52.078;8.414;2023-03-16T13:25:42;100142.44;;;17.71;52.89
56514;BME280;62152;52.078;8.414;2023-03-16T13:29:52;100138.84;;;17.70;53.40
56514;BME280;62152;52.078;8.414;2023-03-16T13:33:55;100133.06;;;17.72;52.86
56514;BME280;62152;52.078;8.414;2023-03-16T13:38:02;100132.69;;;17.73;53.26
56514;BME280;62152;52.078;8.414;2023-03-16T13:42:15;100132.69;;;17.73;53.06
56514;BME280;62152;52.078;8.414;2023-03-16T13:46:20;100119.75;;;17.74;53.39
56514;BME280;62152;52.078;8.414;2023-03-16T13:50:21;100110.75;;;17.73;53.23
56514;BME280;62152;52.078;8.414;2023-03-16T13:54:24;100098.19;;;17.72;52.86
56514;BME280;62152;52.078;8.414;2023-03-16T13:58:30;100086.75;;;17.70;53.64
56514;BME280;62152;52.078;8.414;2023-03-16T14:02:39;100070.28;;;17.70;53.21
56514;BME280;62152;52.078;8.414;2023-03-16T14:06:40;100059.31;;;17.70;53.60
56514;BME280;62152;52.078;8.414;2023-03-16T14:10:53;100067.53;;;17.70;53.34
56514;BME280;62152;52.078;8.414;2023-03-16T14:14:55;100049.19;;;17.71;53.36
56514;BME280;62152;52.078;8.414;2023-03-16T14:19:00;100047.25;;;17.71;53.35
56514;BME280;62152;52.078;8.414;2023-03-16T14:23:02;100040.13;;;17.70;53.04
56514;BME280;62152;52.078;8.414;2023-03-16T14:27:18;100029.13;;;17.70;53.34
56514;BME280;62152;52.078;8.414;2023-03-16T14:31:21;100031.88;;;17.70;53.52
56514;BME280;62152;52.078;8.414;2023-03-16T14:35:25;100022.88;;;17.70;53.17
56514;BME280;62152;52.078;8.414;2023-03-16T14:39:26;100029.13;;;17.70;53.31
56514;BME280;62152;52.078;8.414;2023-03-16T14:43:29;100025.97;;;17.68;53.48
56514;BME280;62152;52.078;8.414;2023-03-16T14:47:38;100018.53;;;17.69;53.25
56514;BME280;62152;52.078;8.414;2023-03-16T14:51:40;100009.16;;;17.70;53.55
56514;BME280;62152;52.078;8.414;2023-03-16T14:55:41;100008.84;;;17.71;53.08
56514;BME280;62152;52.078;8.414;2023-03-16T14:59:42;100001.03;;;17.73;53.15
56514;BME280;62152;52.078;8.414;2023-03-16T15:03:44;99978.69;;;17.75;53.46
56514;BME280;62152;52.078;8.414;2023-03-16T15:07:45;99964.19;;;17.74;53.12
56514;BME280;62152;52.078;8.414;2023-03-16T15:11:45;99968.91;;;17.74;53.41
56514;BME280;62152;52.078;8.414;2023-03-16T15:15:46;99975.16;;;17.74;53.36
56514;BME280;62152;52.078;8.414;2023-03-16T15:19:48;99966.53;;;17.72;53.56
56514;BME280;62152;52.078;8.414;2023-03-16T15:23:49;99963.31;;;17.70;53.28
56514;BME280;62152;52.078;8.414;2023-03-16T15:27:51;99954.75;;;17.72;53.57
56514;BME280;62152;52.078;8.414;2023-03-16T15:31:52;99954.75;;;17.72;53.48
56514;BME280;62152;52.078;8.414;2023-03-16T15:35:56;99925.78;;;17.74;53.70
56514;BME280;62152;52.078;8.414;2023-03-16T15:39:57;99919.16;;;17.75;52.92
56514;BME280;62152;52.078;8.414;2023-03-16T15:43:58;99907.00;;;17.76;53.35
56514;BME280;62152;52.078;8.414;2023-03-16T15:47:58;99912.94;;;17.79;53.30
56514;BME280;62152;52.078;8.414;2023-03-16T15:52:00;99914.09;;;17.77;53.15
56514;BME280;62152;52.078;8.414;2023-03-16T15:56:03;99911.34;;;17.77;53.05
56514;BME280;62152;52.078;8.414;2023-03-16T16:00:09;99900.78;;;17.80;53.49
56514;BME280;62152;52.078;8.414;2023-03-16T16:04:14;99892.56;;;17.80;52.98
56514;BME280;62152;52.078;8.414;2023-03-16T16:08:18;99897.25;;;17.79;53.09
56514;BME280;62152;52.078;8.414;2023-03-16T16:12:20;99902.31;;;17.77;53.29
56514;BME280;62152;52.078;8.414;2023-03-16T16:16:21;99890.19;;;17.78;53.40
56514;BME280;62152;52.078;8.414;2023-03-16T16:20:24;99893.28;;;17.76;52.95
56514;BME280;62152;52.078;8.414;2023-03-16T16:24:26;99890.94;;;17.75;53.22
56514;BME280;62152;52.078;8.414;2023-03-16T16:28:29;99892.47;;;17.72;53.37
56514;BME280;62152;52.078;8.414;2023-03-16T16:32:30;99875.53;;;17.70;53.81
56514;BME280;62152;52.078;8.414;2023-03-16T16:36:31;99863.00;;;17.69;53.53
56514;BME280;62152;52.078;8.414;2023-03-16T16:40:37;99863.38;;;17.68;53.90
56514;BME280;62152;52.078;8.414;2023-03-16T16:44:39;99858.66;;;17.68;53.63
56514;BME280;62152;52.078;8.414;2023-03-16T16:48:42;99848.88;;;17.67;53.61
56514;BME280;62152;52.078;8.414;2023-03-16T16:52:43;99841.81;;;17.66;53.47
56514;BME280;62152;52.078;8.414;2023-03-16T16:56:46;99841.81;;;17.66;53.83
56514;BME280;62152;52.078;8.414;2023-03-16T17:00:51;99840.22;;;17.65;53.22
56514;BME280;62152;52.078;8.414;2023-03-16T17:04:52;99845.28;;;17.63;53.85
56514;BME280;62152;52.078;8.414;2023-03-16T17:08:53;99836.69;;;17.65;53.75
56514;BME280;62152;52.078;8.414;2023-03-16T17:12:55;99840.59;;;17.64;53.62
56514;BME280;62152;52.078;8.414;2023-03-16T17:16:57;99838.22;;;17.62;53.75
56514;BME280;62152;52.078;8.414;2023-03-16T17:21:00;99837.41;;;17.62;53.44
56514;BME280;62152;52.078;8.414;2023-03-16T17:25:00;99838.59;;;17.61;53.75
56514;BME280;62152;52.078;8.414;2023-03-16T17:29:09;99845.72;;;17.65;53.36
56514;BME280;62152;52.078;8.414;2023-03-16T17:33:15;99849.19;;;17.62;53.75
56514;BME280;62152;52.078;8.414;2023-03-16T17:37:18;99852.69;;;17.59;53.46
56514;BME280;62152;52.078;8.414;2023-03-16T17:41:22;99853.84;;;17.58;54.12
56514;BME280;62152;52.078;8.414;2023-03-16T17:45:26;99847.91;;;17.56;53.59
56514;BME280;62152;52.078;8.414;2023-03-16T17:49:27;99844.03;;;17.57;53.55
56514;BME280;62152;52.078;8.414;2023-03-16T17:53:27;99847.13;;;17.56;53.69
56514;BME280;62152;52.078;8.414;2023-03-16T17:57:30;99840.84;;;17.55;54.06
56514;BME280;62152;52.078;8.414;2023-03-16T18:01:35;99838.91;;;17.56;53.98
56514;BME280;62152;52.078;8.414;2023-03-16T18:05:35;99840.06;;;17.55;53.81
56514;BME280;62152;52.078;8.414;2023-03-16T18:09:36;99829.09;;;17.55;53.79
56514;BME280;62152;52.078;8.414;2023-03-16T18:13:39;99837.72;;;17.53;53.63
56514;BME280;62152;52.078;8.414;2023-03-16T18:17:42;99836.91;;;17.53;54.01
56514;BME280;62152;52.078;8.414;2023-03-16T18:21:43;99838.88;;;17.52;53.61
56514;BME280;62152;52.078;8.414;2023-03-16T18:25:44;99837.72;;;17.53;54.22
56514;BME280;62152;52.078;8.414;2023-03-16T18:29:45;99831.44;;;17.53;54.14
56514;BME280;62152;52.078;8.414;2023-03-16T18:33:50;99829.84;;;17.52;54.22
56514;BME280;62152;52.078;8.414;2023-03-16T18:37:53;99829.84;;;17.52;54.23
56514;BME280;62152;52.078;8.414;2023-03-16T18:41:53;99835.34;;;17.52;53.74
56514;BME280;62152;52.078;8.414;2023-03-16T18:45:54;99838.09;;;17.52;54.22
56514;BME280;62152;52.078;8.414;2023-03-16T18:49:57;99833.75;;;17.50;54.27
56514;BME280;62152;52.078;8.414;2023-03-16T18:53:57;99837.28;;;17.51;54.03
56514;BME280;62152;52.078;8.414;2023-03-16T18:57:58;99835.72;;;17.50;54.33
56514;BME280;62152;52.078;8.414;2023-03-16T19:01:59;99836.06;;;17.48;54.01
56514;BME280;62152;52.078;8.414;2023-03-16T19:06:01;99832.97;;;17.50;54.17
56514;BME280;62152;52.078;8.414;2023-03-16T19:10:06;99832.97;;;17.50;53.65
56514;BME280;62152;52.078;8.414;2023-03-16T19:14:15;99831.03;;;17.50;53.84
56514;BME280;62152;52.078;8.414;2023-03-16T19:18:16;99834.34;;;17.37;52.89
56514;BME280;62152;52.078;8.414;2023-03-16T19:22:18;99829.00;;;17.21;52.32
56514;BME280;62152;52.078;8.414;2023-03-16T19:26:18;99826.13;;;17.10;52.35
56514;BME280;62152;52.078;8.414;2023-03-16T19:30:23;99823.69;;;17.05;51.26
56514;BME280;62152;52.078;8.414;2023-03-16T19:34:24;99813.47;;;17.02;50.16
56514;BME280;62152;52.078;8.414;2023-03-16T19:38:26;99819.28;;;17.01;49.92
56514;BME280;62152;52.078;8.414;2023-03-16T19:42:30;99816.06;;;17.18;51.23
56514;BME280;62152;52.078;8.414;2023-03-16T19:46:32;99808.31;;;17.23;50.83
56514;BME280;62152;52.078;8.414;2023-03-16T19:50:33;99814.63;;;17.28;50.74
56514;BME280;62152;52.078;8.414;2023-03-16T19:54:35;99802.94;;;17.31;50.69
56514;BME280;62152;52.078;8.414;2023-03-16T19:58:37;99799.03;;;17.32;51.18
56514;BME280;62152;52.078;8.414;2023-03-16T20:02:39;99791.59;;;17.32;51.05
56514;BME280;62152;52.078;8.414;2023-03-16T20:06:39;99788.06;;;17.32;50.99
56514;BME280;62152;52.078;8.414;2023-03-16T20:10:41;99799.44;;;17.34;51.36
56514;BME280;62152;52.078;8.414;2023-03-16T20:14:42;99785.72;;;17.34;51.43
56514;BME280;62152;52.078;8.414;2023-03-16T20:18:43;99785.72;;;17.34;51.03
56514;BME280;62152;52.078;8.414;2023-03-16T20:22:44;99789.25;;;17.34;51.74
56514;BME280;62152;52.078;8.414;2023-03-16T20:26:47;99791.22;;;17.34;51.36
56514;BME280;62152;52.078;8.414;2023-03-16T20:30:49;99788.09;;;17.35;51.49
56514;BME280;62152;52.078;8.414;2023-03-16T20:34:51;99781.03;;;17.34;51.71
56514;BME280;62152;52.078;8.414;2023-03-16T20:38:51;99768.13;;;17.35;51.70
56514;BME280;62152;52.078;8.414;2023-03-16T20:42:53;99763.81;;;17.34;51.91
56514;BME280;62152;52.078;8.414;2023-03-16T20:46:54;99765.38;;;17.35;51.70
56514;BME280;62152;52.078;8.414;2023-03-16T20:50:57;99762.63;;;17.35;51.91
56514;BME280;62152;52.078;8.414;2023-03-16T20:54:58;99755.19;;;17.35;52.36
56514;BME280;62152;52.078;8.414;2023-03-16T20:59:00;99750.50;;;17.36;51.86
56514;BME280;62152;52.078;8.414;2023-03-16T21:03:04;99742.28;;;17.36;52.19
56514;BME280;62152;52.078;8.414;2023-03-16T21:07:05;99735.22;;;17.35;52.67
56514;BME280;62152;52.078;8.414;2023-03-16T21:11:18;99734.88;;;17.36;52.60
56514;BME280;62152;52.078;8.414;2023-03-16T21:15:24;99721.53;;;17.35;52.62
56514;BME280;62152;52.078;8.414;2023-03-16T21:19:26;99716.03;;;17.35;52.57